Time;durP1;ratioP1;P1;durP2;ratioP2;P2;SDS_P1;SDS_P2;PMS_P1;PMS_P2;Temp;Humidity;BMP_temperature;BMP_pressure;BME280_temperature;BME280_humidity;BME280_pressure;Samples;Min_cycle;Max_cycle;Signal;HPM_P1;HPM_P2
2020/12/10 00:01:06;;;;;;;255.88;55.55;;;-0.30;99.90;;;;;;5095866;28;20047;-68
2020/12/10 00:03:32;;;;;;;188.98;51.45;;;-0.30;99.90;;;;;;5097255;28;20028;-68
2020/12/10 00:05:57;;;;;;;190.15;54.72;;;-0.30;99.90;;;;;;5095791;28;20075;-68
2020/12/10 00:08:23;;;;;;;191.70;54.83;;;-0.30;99.90;;;;;;5096857;28;20171;-67
2020/12/10 00:10:49;;;;;;;187.93;53.40;;;-0.30;99.90;;;;;;5097131;28;20093;-67
2020/12/10 00:13:14;;;;;;;261.15;57.53;;;-0.30;99.90;;;;;;5095496;28;20534;-67
2020/12/10 00:15:40;;;;;;;235.18;54.15;;;-0.20;99.90;;;;;;5096953;28;20093;-68
2020/12/10 00:18:05;;;;;;;171.20;51.33;;;-0.30;99.90;;;;;;5095447;28;20028;-68
2020/12/10 00:20:31;;;;;;;172.80;52.72;;;-0.30;99.90;;;;;;5096846;28;20509;-67
2020/12/10 00:22:56;;;;;;;168.45;51.65;;;-0.30;99.90;;;;;;5095019;28;20020;-68
2020/12/10 00:25:22;;;;;;;193.75;53.63;;;-0.30;99.90;;;;;;5096724;28;20084;-68
2020/12/10 00:27:47;;;;;;;186.18;55.50;;;-0.40;99.90;;;;;;5095514;28;20162;-68
2020/12/10 00:30:13;;;;;;;167.82;55.58;;;-0.50;99.90;;;;;;5095233;28;20028;-67
2020/12/10 00:32:39;;;;;;;182.15;54.85;;;-0.50;99.90;;;;;;5094832;28;20035;-68
2020/12/10 00:35:06;;;;;;;155.45;52.67;;;-0.40;99.90;;;;;;5096561;28;20409;-68
2020/12/10 00:37:33;;;;;;;141.88;50.30;;;-0.40;99.90;;;;;;5078040;28;20107;-67
2020/12/10 00:39:59;;;;;;;147.00;50.80;;;-0.40;99.90;;;;;;5096019;28;20016;-68
2020/12/10 00:42:25;;;;;;;136.90;50.05;;;-0.40;99.90;;;;;;5095989;28;20111;-67
2020/12/10 00:44:50;;;;;;;131.15;48.25;;;-0.40;99.90;;;;;;5096436;28;20073;-68
2020/12/10 00:47:18;;;;;;;120.63;46.97;;;-0.30;99.90;;;;;;5095498;28;20029;-68
2020/12/10 00:49:44;;;;;;;132.77;49.20;;;-0.40;99.90;;;;;;5095217;28;20020;-68
2020/12/10 00:52:11;;;;;;;152.20;50.83;;;-0.30;99.90;;;;;;5094503;28;20114;-67
2020/12/10 00:54:37;;;;;;;130.20;48.47;;;-0.30;99.90;;;;;;5094251;28;20097;-68
2020/12/10 00:57:02;;;;;;;145.07;48.58;;;-0.30;99.90;;;;;;5095250;28;20020;-68
2020/12/10 00:59:28;;;;;;;132.13;49.45;;;-0.30;99.90;;;;;;5095895;28;20046;-68
2020/12/10 01:01:53;;;;;;;127.85;49.05;;;-0.30;99.90;;;;;;5094975;28;20054;-68
2020/12/10 01:04:19;;;;;;;133.43;46.90;;;-0.30;99.90;;;;;;5094382;28;20036;-67
2020/12/10 01:06:45;;;;;;;127.38;47.92;;;-0.30;99.90;;;;;;5095777;28;20496;-68
2020/12/10 01:09:10;;;;;;;126.00;45.50;;;-0.20;99.90;;;;;;5095643;28;20032;-68
2020/12/10 01:11:37;;;;;;;135.63;46.97;;;-0.30;99.90;;;;;;5077150;28;20066;-68
2020/12/10 01:14:05;;;;;;;133.68;49.28;;;-0.20;99.90;;;;;;5095835;28;20221;-68
2020/12/10 01:16:31;;;;;;;127.28;47.78;;;-0.30;99.90;;;;;;5095798;28;20028;-68
2020/12/10 01:18:56;;;;;;;135.48;47.50;;;-0.30;99.90;;;;;;5095802;28;20092;-68
2020/12/10 01:21:31;;;;;;;118.80;46.53;;;-0.30;99.90;;;;;;5095471;28;20099;-68
2020/12/10 01:23:58;;;;;;;114.25;43.95;;;-0.30;99.90;;;;;;5095412;28;20104;-68
2020/12/10 01:26:25;;;;;;;119.90;45.95;;;-0.30;99.90;;;;;;5093940;28;20350;-68
2020/12/10 01:28:51;;;;;;;117.10;44.50;;;-0.30;99.90;;;;;;5094154;28;20035;-68
2020/12/10 01:31:16;;;;;;;117.18;46.15;;;-0.30;99.90;;;;;;5095569;28;20028;-68
2020/12/10 01:33:42;;;;;;;113.65;44.60;;;-0.30;99.90;;;;;;5095399;28;20077;-68
2020/12/10 01:36:07;;;;;;;117.30;44.13;;;-0.30;99.90;;;;;;5095396;28;20020;-68
2020/12/10 01:38:33;;;;;;;114.30;46.05;;;-0.30;99.90;;;;;;5095348;28;20435;-67
2020/12/10 01:40:59;;;;;;;106.63;43.13;;;-0.30;99.90;;;;;;5095309;28;20420;-68
2020/12/10 01:43:24;;;;;;;101.15;43.00;;;-0.30;99.90;;;;;;5077079;28;20024;-68
2020/12/10 01:45:50;;;;;;;102.85;41.90;;;-0.30;99.90;;;;;;5095252;28;20062;-68
2020/12/10 01:48:15;;;;;;;114.72;44.03;;;-0.20;99.90;;;;;;5093964;28;20465;-68
2020/12/10 01:50:41;;;;;;;110.95;43.88;;;-0.30;99.90;;;;;;5093728;28;20052;-68
2020/12/10 01:53:06;;;;;;;110.00;43.30;;;-0.20;99.90;;;;;;5093331;28;20541;-68
2020/12/10 01:55:32;;;;;;;104.07;43.60;;;-0.30;99.90;;;;;;5094060;28;20457;-68
2020/12/10 01:57:59;;;;;;;102.88;42.65;;;-0.30;99.90;;;;;;5093660;28;20457;-68
2020/12/10 02:00:25;;;;;;;111.45;43.20;;;-0.30;99.90;;;;;;5093267;28;20469;-68
2020/12/10 02:02:58;;;;;;;96.45;41.50;;;-0.40;99.90;;;;;;5093804;28;20080;-67
2020/12/10 02:05:24;;;;;;;105.85;42.20;;;-0.40;99.90;;;;;;5094922;28;20049;-68
2020/12/10 02:07:50;;;;;;;106.55;42.80;;;-0.50;99.90;;;;;;5076734;28;20032;-68
2020/12/10 02:10:15;;;;;;;108.13;43.45;;;-0.50;99.90;;;;;;5094836;28;20385;-67
2020/12/10 02:12:42;;;;;;;107.68;45.42;;;-0.60;99.90;;;;;;5094769;28;20023;-68
2020/12/10 02:15:08;;;;;;;123.95;52.08;;;-0.60;99.90;;;;;;5093245;28;20024;-68
2020/12/10 02:17:34;;;;;;;124.60;48.17;;;-0.60;99.90;;;;;;5094748;28;20020;-68
2020/12/10 02:20:00;;;;;;;120.18;46.80;;;-0.70;99.90;;;;;;5094412;28;20496;-68
2020/12/10 02:22:26;;;;;;;116.95;46.13;;;-0.70;99.90;;;;;;5092814;28;20020;-67
2020/12/10 02:24:51;;;;;;;125.43;49.20;;;-0.70;99.90;;;;;;5094302;28;20465;-68
2020/12/10 02:27:17;;;;;;;132.55;49.80;;;-0.80;99.90;;;;;;5092998;28;20477;-68
2020/12/10 02:29:42;;;;;;;129.15;50.92;;;-0.80;99.90;;;;;;5092690;28;20118;-68
2020/12/10 02:32:08;;;;;;;116.57;48.42;;;-0.80;99.90;;;;;;5094720;28;20052;-67
2020/12/10 02:34:33;;;;;;;115.80;47.13;;;-0.80;99.90;;;;;;5094034;28;20468;-68
2020/12/10 02:36:59;;;;;;;115.07;47.08;;;-0.80;99.90;;;;;;5094384;28;20024;-68
2020/12/10 02:39:24;;;;;;;111.97;44.72;;;-0.80;99.90;;;;;;5094028;28;20050;-69
2020/12/10 02:41:50;;;;;;;112.57;45.90;;;-0.80;99.90;;;;;;5092869;28;20046;-68
2020/12/10 02:44:16;;;;;;;116.50;45.92;;;-0.80;99.90;;;;;;5093760;28;20048;-68
2020/12/10 02:46:41;;;;;;;111.63;45.75;;;-0.80;99.90;;;;;;5092851;28;20381;-68
2020/12/10 02:49:07;;;;;;;115.88;46.38;;;-0.80;99.90;;;;;;5094287;28;20039;-68
2020/12/10 02:51:33;;;;;;;115.43;46.72;;;-0.70;99.90;;;;;;5092343;28;20024;-68
2020/12/10 02:53:58;;;;;;;113.60;46.20;;;-0.70;99.90;;;;;;5093598;28;20076;-68
2020/12/10 02:56:24;;;;;;;115.80;44.63;;;-0.60;99.90;;;;;;5092303;28;20031;-68
2020/12/10 02:58:49;;;;;;;105.60;45.35;;;-0.60;99.90;;;;;;5092298;28;20028;-68
2020/12/10 03:01:15;;;;;;;114.25;48.00;;;-0.60;99.90;;;;;;5092646;28;20472;-68
2020/12/10 03:03:41;;;;;;;111.28;44.67;;;-0.60;99.90;;;;;;5092581;28;20036;-68
2020/12/10 03:06:08;;;;;;;103.22;44.83;;;-0.50;99.90;;;;;;5092567;28;20040;-68
2020/12/10 03:08:34;;;;;;;103.95;45.05;;;-0.50;99.90;;;;;;5094026;28;20063;-68
2020/12/10 03:11:00;;;;;;;115.47;46.70;;;-0.50;99.90;;;;;;5095218;28;20077;-68
2020/12/10 03:13:26;;;;;;;121.60;46.28;;;-0.40;99.90;;;;;;5098155;28;20020;-66
2020/12/10 03:15:52;;;;;;;123.30;45.97;;;-0.50;99.90;;;;;;5097862;28;20020;-68
2020/12/10 03:18:18;;;;;;;122.35;48.88;;;-0.40;99.90;;;;;;5098087;28;20462;-68
2020/12/10 03:20:44;;;;;;;122.05;49.67;;;-0.50;99.90;;;;;;5096182;28;20023;-68
2020/12/10 03:23:10;;;;;;;137.40;52.25;;;-0.50;99.90;;;;;;5098040;28;20373;-68
2020/12/10 03:25:35;;;;;;;127.60;50.50;;;-0.40;99.90;;;;;;5097713;28;20024;-66
2020/12/10 03:28:01;;;;;;;122.78;49.42;;;-0.40;99.90;;;;;;5096493;28;20034;-67
2020/12/10 03:30:26;;;;;;;125.20;47.75;;;-0.40;99.90;;;;;;5097645;28;20027;-67
2020/12/10 03:32:52;;;;;;;111.68;47.53;;;-0.40;99.90;;;;;;5097844;28;20477;-68
2020/12/10 03:35:18;;;;;;;121.85;48.88;;;-0.30;99.90;;;;;;5097455;28;20077;-67
2020/12/10 03:37:43;;;;;;;125.43;48.47;;;-0.30;99.90;;;;;;5095881;28;20020;-67
2020/12/10 03:40:09;;;;;;;114.45;46.33;;;-0.30;99.90;;;;;;5096015;28;20528;-68
2020/12/10 03:42:35;;;;;;;111.05;47.15;;;-0.30;99.90;;;;;;5097626;28;20016;-68
2020/12/10 03:45:01;;;;;;;113.93;47.20;;;-0.30;99.90;;;;;;5097318;28;20357;-68
2020/12/10 03:47:26;;;;;;;116.97;47.08;;;-0.40;99.90;;;;;;5096080;28;20086;-68
2020/12/10 03:49:52;;;;;;;112.40;46.95;;;-0.40;99.90;;;;;;5096090;28;20118;-67
2020/12/10 03:52:18;;;;;;;111.82;46.47;;;-0.40;99.90;;;;;;5097479;28;20516;-68
2020/12/10 03:54:43;;;;;;;111.75;45.42;;;-0.40;99.90;;;;;;5096658;28;20050;-68
2020/12/10 03:57:09;;;;;;;117.38;47.00;;;-0.40;99.90;;;;;;5095552;28;20077;-67
2020/12/10 03:59:35;;;;;;;115.90;46.50;;;-0.40;99.90;;;;;;5095593;28;20024;-67
2020/12/10 04:02:00;;;;;;;113.72;47.33;;;-0.40;99.90;;;;;;5096980;28;20016;-67
2020/12/10 04:04:26;;;;;;;103.90;44.20;;;-0.50;99.90;;;;;;5097189;28;20038;-68
2020/12/10 04:06:52;;;;;;;111.53;44.80;;;-0.50;99.90;;;;;;5097161;28;20373;-68
2020/12/10 04:09:17;;;;;;;93.90;41.88;;;-0.50;99.90;;;;;;5096816;28;20377;-67
2020/12/10 04:11:43;;;;;;;98.88;42.65;;;-0.60;99.90;;;;;;5078372;28;20028;-68
2020/12/10 04:14:09;;;;;;;104.88;44.90;;;-0.70;99.90;;;;;;5095434;28;20027;-68
2020/12/10 04:16:35;;;;;;;97.10;41.85;;;-0.70;99.90;;;;;;5096672;28;20027;-68
2020/12/10 04:19:00;;;;;;;103.80;42.08;;;-0.80;99.90;;;;;;5096676;28;20028;-67
2020/12/10 04:21:26;;;;;;;103.03;42.97;;;-0.90;99.90;;;;;;5094433;28;20031;-68
2020/12/10 04:23:52;;;;;;;109.03;42.17;;;-0.90;99.90;;;;;;5096559;28;20020;-67
2020/12/10 04:26:18;;;;;;;107.22;42.95;;;-0.90;99.90;;;;;;5095614;28;20025;-67
2020/12/10 04:28:44;;;;;;;101.75;41.20;;;-1.00;99.90;;;;;;5095091;28;20028;-67
2020/12/10 04:31:10;;;;;;;96.53;41.42;;;-1.00;99.90;;;;;;5095421;28;20020;-67
2020/12/10 04:33:36;;;;;;;106.20;43.78;;;-1.10;99.90;;;;;;5094906;28;20039;-67
2020/12/10 04:36:03;;;;;;;114.32;45.25;;;-1.10;99.90;;;;;;5096657;28;20065;-67
2020/12/10 04:38:30;;;;;;;105.90;42.78;;;-1.20;99.90;;;;;;5096036;28;20020;-67
2020/12/10 04:40:56;;;;;;;113.50;43.30;;;-1.20;99.90;;;;;;5095433;28;20023;-67
2020/12/10 04:43:28;;;;;;;111.78;44.65;;;-1.20;99.90;;;;;;5095955;28;20042;-67
2020/12/10 04:45:57;;;;;;;123.90;46.85;;;-1.30;99.90;;;;;;5095370;28;20016;-67
2020/12/10 04:48:25;;;;;;;120.88;47.33;;;-1.30;99.90;;;;;;5096120;28;20020;-67
2020/12/10 04:50:52;;;;;;;138.57;49.50;;;-1.40;99.90;;;;;;5096387;28;20022;-67
2020/12/10 04:53:18;;;;;;;159.57;55.28;;;-1.40;99.90;;;;;;5094192;28;20375;-68
2020/12/10 04:55:44;;;;;;;159.57;55.55;;;-1.30;99.90;;;;;;5096272;28;20077;-67
2020/12/10 04:58:09;;;;;;;146.15;54.58;;;-1.30;99.90;;;;;;5095936;28;20020;-67
2020/12/10 05:00:35;;;;;;;134.15;52.03;;;-1.30;99.90;;;;;;5094721;28;20024;-67
2020/12/10 05:03:01;;;;;;;138.63;48.85;;;-1.40;99.90;;;;;;5094628;28;20480;-67
2020/12/10 05:05:30;;;;;;;145.05;51.40;;;-1.40;99.90;;;;;;5095053;28;20032;-67
2020/12/10 05:07:58;;;;;;;139.57;51.97;;;-1.40;99.90;;;;;;5096015;28;20036;-67
2020/12/10 05:10:24;;;;;;;144.25;53.65;;;-1.40;99.90;;;;;;5094945;28;20059;-67
2020/12/10 05:12:50;;;;;;;137.50;51.05;;;-1.40;99.90;;;;;;5095285;28;20047;-67
2020/12/10 05:15:30;;;;;;;139.10;53.42;;;-1.40;99.90;;;;;;5094512;28;20070;-67
2020/12/10 05:18:06;;;;;;;142.05;52.30;;;-1.40;99.90;;;;;;5078918;28;20020;-67
2020/12/10 05:20:42;;;;;;;142.02;52.25;;;-1.40;99.90;;;;;;5095745;28;20066;-68
2020/12/10 05:23:08;;;;;;;153.85;55.83;;;-1.50;99.90;;;;;;5094321;28;20051;-67
2020/12/10 05:25:51;;;;;;;156.02;54.65;;;-1.40;99.90;;;;;;5095736;28;20027;-67
2020/12/10 05:28:19;;;;;;;140.70;51.95;;;-1.40;99.90;;;;;;5095696;28;20031;-67
2020/12/10 05:31:00;;;;;;;166.52;55.92;;;-1.50;99.90;;;;;;5095633;28;20024;-67
2020/12/10 05:33:25;;;;;;;149.07;54.13;;;-1.40;99.90;;;;;;5092850;28;20016;-67
2020/12/10 05:36:04;;;;;;;153.27;55.35;;;-1.40;99.90;;;;;;5095462;28;20025;-67
2020/12/10 05:38:30;;;;;;;152.98;53.78;;;-1.40;99.90;;;;;;5094011;28;20101;-67
2020/12/10 05:41:16;;;;;;;157.82;55.53;;;-1.40;99.90;;;;;;5093573;28;20439;-68
2020/12/10 05:43:41;;;;;;;167.30;55.78;;;-1.40;99.90;;;;;;5094213;28;20031;-68
2020/12/10 05:46:15;;;;;;;175.27;58.67;;;-1.40;99.90;;;;;;5094770;28;20028;-67
2020/12/10 05:48:41;;;;;;;162.45;57.97;;;-1.40;99.90;;;;;;5093441;28;20548;-67
2020/12/10 05:51:15;;;;;;;153.40;55.92;;;-1.40;99.90;;;;;;5094965;28;20111;-67
2020/12/10 05:53:42;;;;;;;137.30;52.28;;;-1.50;99.90;;;;;;5093207;28;20044;-67
2020/12/10 05:56:12;;;;;;;143.32;52.33;;;-1.60;99.90;;;;;;5093637;28;20026;-67
2020/12/10 05:58:53;;;;;;;130.80;50.65;;;-1.60;99.90;;;;;;5095049;28;20016;-68
2020/12/10 06:01:35;;;;;;;161.80;55.33;;;-1.70;99.90;;;;;;5095023;28;20069;-67
2020/12/10 06:04:02;;;;;;;157.32;53.70;;;-1.70;99.90;;;;;;5093131;28;20089;-67
2020/12/10 06:06:29;;;;;;;154.95;53.58;;;-1.80;99.90;;;;;;5094933;28;20028;-67
2020/12/10 06:09:04;;;;;;;141.70;51.05;;;-1.70;99.90;;;;;;5093589;28;20032;-67
2020/12/10 06:11:31;;;;;;;160.45;55.38;;;-1.80;99.90;;;;;;5093348;28;20024;-67
2020/12/10 06:14:05;;;;;;;170.73;56.45;;;-1.70;99.90;;;;;;5093549;28;20063;-67
2020/12/10 06:16:32;;;;;;;149.80;52.92;;;-1.70;99.90;;;;;;5093273;28;20035;-67
2020/12/10 06:19:01;;;;;;;196.73;61.03;;;-1.70;99.90;;;;;;5094357;28;20016;-67
2020/12/10 06:21:40;;;;;;;186.77;57.80;;;-1.60;99.90;;;;;;5093210;28;20043;-67
2020/12/10 06:24:28;;;;;;;176.18;58.92;;;-1.60;99.90;;;;;;5093609;28;20119;-67
2020/12/10 06:26:55;;;;;;;194.70;59.42;;;-1.60;99.90;;;;;;5093977;28;20016;-67
2020/12/10 06:32:21;;;;;;;175.73;57.92;;;-1.70;99.90;;;;;;5112214;27;20347;-67
2020/12/10 06:34:50;;;;;;;185.23;56.97;;;-1.80;99.90;;;;;;5110001;28;20020;-67
2020/12/10 06:37:18;;;;;;;224.90;63.00;;;-1.80;99.90;;;;;;5111313;28;20020;-67
2020/12/10 06:39:45;;;;;;;250.65;66.15;;;-1.80;99.90;;;;;;5111847;28;20419;-67
2020/12/10 06:42:11;;;;;;;233.45;64.15;;;-1.60;99.90;;;;;;5111789;28;20095;-68
2020/12/10 06:44:36;;;;;;;217.35;63.45;;;-1.60;99.90;;;;;;5093024;28;20582;-67
2020/12/10 06:47:03;;;;;;;219.65;61.90;;;-1.50;99.90;;;;;;5109864;28;20107;-67
2020/12/10 06:49:32;;;;;;;203.77;59.15;;;-1.60;99.90;;;;;;5109289;28;20073;-68
2020/12/10 06:52:18;;;;;;;192.32;57.65;;;-1.60;99.90;;;;;;5111165;28;20020;-67
2020/12/10 06:55:07;;;;;;;186.38;56.25;;;-1.60;99.90;;;;;;5109936;28;20034;-67
2020/12/10 06:58:25;;;;;;;169.95;53.95;;;-1.70;99.90;;;;;;5109009;28;20015;-67
2020/12/10 07:00:46;;;;;;;160.38;52.80;;;-1.80;99.90;;;;;;5110154;28;20573;-67
2020/12/10 07:03:19;;;;;;;219.13;59.43;;;-1.90;99.90;;;;;;5110479;28;20019;-68
2020/12/10 07:05:44;;;;;;;;;;;-1.80;99.90;;;;;;5110211;28;20107;-67
2020/12/10 07:08:11;;;;;;;206.15;58.20;;;-1.70;99.90;;;;;;5110969;28;19946;-67
2020/12/10 07:10:38;;;;;;;213.30;59.78;;;-1.70;99.90;;;;;;5109855;28;20023;-67
2020/12/10 07:13:04;;;;;;;209.20;59.20;;;-1.70;99.90;;;;;;5111079;28;20044;-67
2020/12/10 07:15:30;;;;;;;219.32;64.18;;;-1.70;99.90;;;;;;5108524;28;20058;-67
2020/12/10 07:17:58;;;;;;;223.05;61.33;;;-1.70;99.90;;;;;;5108582;28;20024;-67
2020/12/10 07:20:24;;;;;;;211.48;60.03;;;-1.70;99.90;;;;;;5103786;28;20112;-68
2020/12/10 07:22:49;;;;;;;251.13;64.88;;;-1.80;99.90;;;;;;5109049;28;20028;-67
2020/12/10 07:25:17;;;;;;;218.05;60.47;;;-1.80;99.90;;;;;;5109555;28;20031;-68
2020/12/10 07:27:44;;;;;;;212.93;59.20;;;-1.70;99.90;;;;;;5109195;28;20024;-67
2020/12/10 07:30:12;;;;;;;193.13;57.55;;;-1.70;99.90;;;;;;5090973;28;20043;-67
2020/12/10 07:32:39;;;;;;;194.25;56.03;;;-1.70;99.90;;;;;;5106879;28;20035;-67
2020/12/10 07:35:05;;;;;;;197.55;57.17;;;-1.80;99.90;;;;;;5107427;28;20108;-67
2020/12/10 07:37:32;;;;;;;194.95;55.00;;;-1.80;99.90;;;;;;5109001;28;20055;-67
2020/12/10 07:40:08;;;;;;;187.65;55.80;;;-1.80;99.90;;;;;;5109327;28;20362;-67
2020/12/10 07:42:33;;;;;;;203.00;57.13;;;-1.80;99.90;;;;;;5099636;28;20477;-67
2020/12/10 07:45:10;;;;;;;210.02;57.17;;;-1.80;99.90;;;;;;5095796;28;20036;-67
2020/12/10 07:47:37;;;;;;;202.68;58.22;;;-1.70;99.90;;;;;;5096170;28;20042;-67
2020/12/10 07:50:08;;;;;;;220.18;59.90;;;-1.70;99.90;;;;;;5095464;28;20031;-67
2020/12/10 07:52:42;;;;;;;216.88;59.58;;;-1.60;99.90;;;;;;5094822;28;20047;-67
2020/12/10 07:55:15;;;;;;;276.33;62.22;;;-1.40;99.90;;;;;;5096460;28;20020;-67
2020/12/10 07:57:49;;;;;;;159.52;43.95;;;-1.30;99.90;;;;;;5073578;28;20020;-67
2020/12/10 08:00:18;;;;;;;222.35;60.92;;;-1.30;99.90;;;;;;5074291;28;20040;-67
2020/12/10 08:02:57;;;;;;;241.30;62.55;;;-1.30;99.90;;;;;;5074082;28;20025;-67
2020/12/10 08:05:24;;;;;;;352.25;64.07;;;-1.30;99.90;;;;;;5075585;28;20016;-66
2020/12/10 08:07:51;;;;;;;341.40;65.60;;;-1.30;99.90;;;;;;5074363;28;20142;-65
2020/12/10 08:10:27;;;;;;;700.83;85.85;;;-1.20;99.90;;;;;;5074958;28;20528;-67
2020/12/10 08:13:15;;;;;;;700.38;86.38;;;-1.30;99.90;;;;;;5076584;28;20075;-67
2020/12/10 08:15:43;;;;;;;749.40;93.63;;;-1.40;99.90;;;;;;5088856;28;20381;-67
2020/12/10 08:18:11;;;;;;;277.05;61.20;;;-1.50;99.90;;;;;;5094433;28;20024;-67
2020/12/10 08:20:43;;;;;;;542.50;79.95;;;-1.40;99.90;;;;;;5096035;28;20059;-67
2020/12/10 08:23:09;;;;;;;507.45;78.15;;;-1.40;99.90;;;;;;5092446;28;20119;-67
2020/12/10 08:25:35;;;;;;;386.65;66.50;;;-1.50;99.90;;;;;;5093803;28;20028;-66
2020/12/10 08:28:05;;;;;;;401.80;69.72;;;-1.40;99.90;;;;;;5093950;28;20028;-67
2020/12/10 08:30:52;;;;;;;371.60;63.55;;;-1.40;99.90;;;;;;5093529;28;20128;-65
2020/12/10 08:33:17;;;;;;;243.60;59.67;;;-1.30;99.90;;;;;;5094997;28;20074;-65
2020/12/10 08:35:44;;;;;;;293.63;61.05;;;-1.30;99.90;;;;;;5093197;28;20024;-66
2020/12/10 08:38:10;;;;;;;237.68;58.65;;;-1.30;99.90;;;;;;5094462;28;20016;-67
2020/12/10 08:40:36;;;;;;;225.48;60.10;;;-1.20;99.90;;;;;;5094137;28;20036;-67
2020/12/10 08:43:18;;;;;;;204.68;57.55;;;-1.20;99.90;;;;;;5093360;28;20051;-67
2020/12/10 08:45:50;;;;;;;189.90;57.95;;;-1.00;99.90;;;;;;5093667;28;20023;-67
2020/12/10 08:48:26;;;;;;;207.35;62.13;;;-0.90;99.90;;;;;;5093811;28;20020;-67
2020/12/10 08:50:54;;;;;;;191.00;59.60;;;-0.80;99.90;;;;;;5093874;28;20040;-67
2020/12/10 08:53:20;;;;;;;186.13;58.60;;;-0.60;99.90;;;;;;5092038;28;20468;-67
2020/12/10 08:55:50;;;;;;;276.63;73.93;;;-0.60;99.90;;;;;;5075719;28;20020;-67
2020/12/10 08:58:21;;;;;;;240.90;71.40;;;0.10;99.90;;;;;;5094640;28;20024;-68
2020/12/10 09:00:47;;;;;;;131.50;51.92;;;1.30;99.90;;;;;;5092505;28;20020;-66
2020/12/10 09:03:15;;;;;;;129.95;49.78;;;2.40;99.90;;;;;;5093584;28;20024;-67
2020/12/10 09:05:41;;;;;;;89.53;38.15;;;3.20;99.90;;;;;;5076760;28;20031;-65
2020/12/10 09:08:07;;;;;;;89.82;39.80;;;3.60;99.90;;;;;;5094541;28;20047;-68
2020/12/10 09:10:33;;;;;;;85.22;37.90;;;3.40;99.90;;;;;;5094511;28;20085;-69
2020/12/10 09:12:59;;;;;;;78.50;36.35;;;3.30;99.90;;;;;;5093170;28;20024;-68
2020/12/10 09:15:26;;;;;;;78.55;36.40;;;3.40;99.90;;;;;;5093109;28;20098;-69
2020/12/10 09:17:52;;;;;;;70.75;34.45;;;4.10;99.90;;;;;;5093422;28;20016;-66
2020/12/10 09:20:18;;;;;;;71.38;34.15;;;4.60;99.90;;;;;;5092893;28;20030;-66
2020/12/10 09:22:44;;;;;;;66.38;33.58;;;4.90;99.90;;;;;;5092414;28;20164;-69
2020/12/10 09:25:10;;;;;;;67.63;32.83;;;5.00;99.90;;;;;;5093901;28;20497;-73
2020/12/10 09:27:36;;;;;;;66.57;35.33;;;5.00;99.90;;;;;;5094382;28;20028;-75
2020/12/10 09:30:04;;;;;;;68.85;34.03;;;5.30;99.90;;;;;;5075606;28;20040;-74
2020/12/10 09:32:34;;;;;;;66.45;33.00;;;5.60;99.90;;;;;;5093960;28;20044;-73
2020/12/10 09:35:02;;;;;;;65.68;32.75;;;5.70;99.90;;;;;;5092763;28;20035;-74
2020/12/10 09:37:28;;;;;;;68.32;35.45;;;6.30;99.90;;;;;;5076989;28;20020;-74
2020/12/10 09:39:54;;;;;;;59.45;31.50;;;6.60;99.90;;;;;;5094437;28;20020;-74
2020/12/10 09:42:20;;;;;;;62.10;31.65;;;7.50;99.90;;;;;;5091532;28;20028;-74
2020/12/10 09:44:45;;;;;;;62.92;33.65;;;7.60;99.90;;;;;;5092192;28;20524;-74
2020/12/10 09:47:11;;;;;;;62.90;33.63;;;7.80;99.90;;;;;;5092710;28;20147;-74
2020/12/10 09:49:37;;;;;;;60.17;32.92;;;7.80;99.90;;;;;;5089002;28;20063;-74
2020/12/10 09:52:05;;;;;;;55.58;31.63;;;7.60;99.90;;;;;;5093206;28;20020;-75
2020/12/10 09:59:32;;;;;;;56.72;31.55;;;7.30;99.90;;;;;;5093739;28;20026;-73
2020/12/10 10:01:58;;;;;;;64.05;33.55;;;6.80;99.90;;;;;;5092295;28;20028;-74
2020/12/10 10:04:24;;;;;;;63.45;33.75;;;7.10;99.90;;;;;;5091675;28;20046;-73
2020/12/10 10:06:49;;;;;;;60.83;31.10;;;7.00;99.90;;;;;;5091881;28;20462;-73
2020/12/10 10:09:15;;;;;;;57.70;29.25;;;6.70;99.90;;;;;;5092718;28;20056;-73
2020/12/10 10:11:43;;;;;;;55.25;30.40;;;6.40;99.90;;;;;;5092936;28;20020;-71
2020/12/10 10:14:09;;;;;;;58.58;30.75;;;5.60;99.90;;;;;;5092654;28;20024;-73
2020/12/10 10:16:34;;;;;;;54.53;30.27;;;5.00;99.90;;;;;;5093498;28;20421;-72
2020/12/10 10:19:00;;;;;;;55.90;29.80;;;4.60;99.90;;;;;;5092055;28;20020;-73
2020/12/10 10:21:27;;;;;;;61.03;30.45;;;4.20;99.90;;;;;;5092594;28;20081;-73
2020/12/10 10:23:54;;;;;;;63.78;31.77;;;3.90;99.90;;;;;;5092309;28;20023;-72
2020/12/10 10:26:20;;;;;;;63.65;31.00;;;3.90;99.90;;;;;;5093200;28;20036;-72
2020/12/10 10:28:48;;;;;;;62.47;29.80;;;4.00;99.90;;;;;;5075275;28;20072;-72
2020/12/10 10:31:13;;;;;;;65.25;32.85;;;4.20;99.90;;;;;;5091571;28;20041;-73
2020/12/10 10:33:39;;;;;;;71.07;31.98;;;4.30;99.90;;;;;;5093308;28;20030;-73
2020/12/10 10:36:05;;;;;;;61.88;30.08;;;4.70;99.90;;;;;;5091916;28;20024;-73
2020/12/10 10:38:30;;;;;;;59.10;30.77;;;5.40;99.90;;;;;;5092807;28;20028;-73
2020/12/10 10:40:56;;;;;;;59.33;30.20;;;6.00;99.90;;;;;;5092764;28;20024;-68
2020/12/10 10:43:22;;;;;;;56.40;29.27;;;6.80;99.90;;;;;;5093142;28;20525;-68
2020/12/10 10:45:47;;;;;;;50.17;27.63;;;7.60;99.90;;;;;;5091496;28;20016;-68
2020/12/10 10:48:13;;;;;;;51.70;28.60;;;8.60;99.90;;;;;;5092386;28;20111;-68
2020/12/10 10:50:38;;;;;;;50.30;27.63;;;9.20;99.90;;;;;;5092668;28;20067;-68
2020/12/10 10:53:04;;;;;;;45.38;26.02;;;9.20;99.90;;;;;;5092323;28;20024;-68
2020/12/10 10:55:30;;;;;;;50.75;29.23;;;8.60;99.90;;;;;;5092464;28;20458;-68
2020/12/10 10:57:56;;;;;;;50.03;28.00;;;8.90;99.90;;;;;;5093011;28;20031;-68
2020/12/10 11:00:21;;;;;;;48.00;28.73;;;9.30;99.90;;;;;;5091683;28;20028;-68
2020/12/10 11:02:47;;;;;;;46.38;27.25;;;9.60;99.90;;;;;;5092452;28;20032;-68
2020/12/10 11:05:13;;;;;;;52.47;29.55;;;9.00;99.90;;;;;;5091566;28;20028;-69
2020/12/10 11:07:40;;;;;;;45.80;26.73;;;9.30;99.90;;;;;;5091932;28;20488;-69
2020/12/10 11:10:08;;;;;;;44.33;26.48;;;9.40;99.90;;;;;;5091664;28;20035;-68
2020/12/10 11:12:33;;;;;;;52.03;27.35;;;9.30;99.90;;;;;;5074902;28;20100;-69
2020/12/10 11:14:59;;;;;;;51.15;26.00;;;8.20;99.90;;;;;;5091324;28;20028;-68
2020/12/10 11:17:25;;;;;;;51.90;27.45;;;7.20;99.90;;;;;;5093992;28;20025;-68
2020/12/10 11:19:50;;;;;;;51.05;27.60;;;6.90;99.90;;;;;;5096484;28;20508;-68
2020/12/10 11:22:16;;;;;;;50.58;27.35;;;6.50;99.90;;;;;;5094539;28;20026;-68
2020/12/10 11:24:42;;;;;;;51.63;27.02;;;6.20;99.90;;;;;;5094827;28;20020;-68
2020/12/10 11:27:07;;;;;;;51.58;28.08;;;6.10;99.90;;;;;;5096026;28;20016;-68
2020/12/10 11:29:33;;;;;;;53.63;27.92;;;5.80;99.90;;;;;;5095479;28;20016;-68
2020/12/10 11:31:59;;;;;;;54.00;27.83;;;5.60;99.90;;;;;;5095768;28;20028;-67
2020/12/10 11:34:25;;;;;;;60.17;28.45;;;5.50;99.90;;;;;;5094645;28;21390;-68
2020/12/10 11:36:50;;;;;;;56.40;28.75;;;5.30;99.90;;;;;;5095931;28;20103;-68
2020/12/10 11:39:16;;;;;;;58.90;30.90;;;5.00;99.90;;;;;;5095598;28;20407;-67
2020/12/10 11:41:42;;;;;;;58.03;28.92;;;5.30;99.90;;;;;;5094169;28;20024;-67
2020/12/10 11:44:08;;;;;;;58.78;28.83;;;5.40;99.90;;;;;;5096191;28;20093;-67
2020/12/10 11:46:34;;;;;;;58.08;28.95;;;5.10;99.90;;;;;;5096234;28;20024;-67
2020/12/10 11:49:00;;;;;;;58.53;28.88;;;4.80;99.90;;;;;;5094976;28;20039;-67
2020/12/10 11:51:26;;;;;;;59.95;29.35;;;4.50;99.90;;;;;;5094121;28;20028;-67
2020/12/10 11:53:51;;;;;;;60.13;29.15;;;4.20;99.90;;;;;;5094490;28;20071;-67
2020/12/10 11:56:17;;;;;;;69.90;31.55;;;3.90;99.90;;;;;;5095463;28;20069;-67
2020/12/10 11:58:43;;;;;;;68.70;33.08;;;4.10;99.90;;;;;;5095216;28;20030;-67
2020/12/10 12:01:09;;;;;;;65.15;31.77;;;3.70;99.90;;;;;;5094980;28;20028;-67
2020/12/10 12:03:35;;;;;;;68.15;32.45;;;3.60;99.90;;;;;;5095667;28;20032;-67
2020/12/10 12:06:00;;;;;;;70.30;33.65;;;3.70;99.90;;;;;;5095663;28;20519;-67
2020/12/10 12:08:28;;;;;;;70.03;33.70;;;3.60;99.90;;;;;;5074028;28;20050;-67
2020/12/10 12:10:55;;;;;;;69.13;32.17;;;3.60;99.90;;;;;;5076022;28;20381;-67
2020/12/10 12:13:21;;;;;;;70.32;33.53;;;3.50;99.90;;;;;;5075433;28;20020;-67
2020/12/10 12:15:47;;;;;;;72.03;32.97;;;3.50;99.90;;;;;;5093339;28;20362;-67
2020/12/10 12:18:13;;;;;;;67.07;32.17;;;3.30;99.90;;;;;;5095133;28;20024;-67
2020/12/10 12:20:39;;;;;;;65.80;31.20;;;3.40;99.90;;;;;;5093231;28;20023;-67
2020/12/10 12:23:06;;;;;;;70.72;32.63;;;3.40;99.90;;;;;;5095010;28;20032;-67
2020/12/10 12:25:33;;;;;;;75.75;33.90;;;3.30;99.90;;;;;;5092381;28;20131;-67
2020/12/10 12:27:59;;;;;;;63.33;31.40;;;3.30;99.90;;;;;;5093871;28;20027;-67
2020/12/10 12:30:24;;;;;;;65.07;32.80;;;3.40;99.90;;;;;;5093177;28;20044;-67
2020/12/10 12:32:50;;;;;;;71.03;32.60;;;3.50;99.90;;;;;;5074054;28;20029;-67